Time;durP1;ratioP1;P1;durP2;ratioP2;P2;SDS_P1;SDS_P2;PMS_P1;PMS_P2;Temp;Humidity;BMP_temperature;BMP_pressure;BME280_temperature;BME280_humidity;BME280_pressure;Samples;Min_cycle;Max_cycle;Signal;HPM_P1;HPM_P2
2022/06/03 00:02:22;;;;;;;;;14.67;11.67;;;;;;;;5060275;28;45331;-64
2022/06/03 00:04:53;;;;;;;;;6.67;6.67;;;;;;;;5078600;28;45455;-64
2022/06/03 00:07:31;;;;;;;;;14.67;14.67;;;;;;;;5078135;28;45483;-64
2022/06/03 00:10:35;;;;;;;;;13.67;12.00;;;;;;;;5078022;28;45440;-64
2022/06/03 00:13:00;;;;;;;;;11.67;9.33;;;;;;;;5028152;28;45484;-64
2022/06/03 00:15:43;;;;;;;;;13.33;11.33;;;;;;;;5015573;28;45461;-64
2022/06/03 00:18:09;;;;;;;;;15.33;12.67;;;;;;;;5032161;28;45441;-64
2022/06/03 00:20:41;;;;;;;;;17.33;12.33;;;;;;;;5035244;28;45733;-64
2022/06/03 00:23:25;;;;;;;;;12.33;11.00;;;;;;;;5035529;28;45380;-64
2022/06/03 00:26:08;;;;;;;;;11.33;10.00;;;;;;;;5021312;28;45591;-64
2022/06/03 00:28:40;;;;;;;;;14.67;13.00;;;;;;;;5015404;28;45975;-64
2022/06/03 00:31:11;;;;;;;;;17.00;12.67;;;;;;;;5018431;28;47276;-64
2022/06/03 00:33:48;;;;;;;;;13.67;12.33;;;;;;;;5015184;28;45434;-64
2022/06/03 00:36:16;;;;;;;;;14.33;12.67;;;;;;;;5016142;28;45487;-64
2022/06/03 00:38:52;;;;;;;;;17.67;12.33;;;;;;;;5015625;28;45294;-64
2022/06/03 00:41:36;;;;;;;;;14.33;11.33;;;;;;;;5028169;28;45424;-64
2022/06/03 00:44:07;;;;;;;;;14.33;11.33;;;;;;;;5060732;28;45460;-64
2022/06/03 00:46:55;;;;;;;;;17.00;16.67;;;;;;;;5077713;28;45384;-65
2022/06/03 00:49:23;;;;;;;;;13.67;13.67;;;;;;;;5076998;28;45801;-64
2022/06/03 00:51:57;;;;;;;;;16.33;13.33;;;;;;;;5067390;28;45521;-64
2022/06/03 00:54:23;;;;;;;;;16.67;14.67;;;;;;;;5070750;28;45478;-64
2022/06/03 00:57:14;;;;;;;;;12.33;10.67;;;;;;;;5074340;28;45383;-64
2022/06/03 00:59:58;;;;;;;;;14.00;13.33;;;;;;;;5051834;28;45554;-64
2022/06/03 01:02:23;;;;;;;;;13.00;11.67;;;;;;;;5060227;28;45584;-64
2022/06/03 01:04:58;;;;;;;;;12.00;12.00;;;;;;;;5077630;28;45336;-64
2022/06/03 01:07:32;;;;;;;;;14.00;12.33;;;;;;;;5077593;28;45376;-64
2022/06/03 01:10:10;;;;;;;;;12.67;11.33;;;;;;;;5077568;28;45371;-64
2022/06/03 01:12:41;;;;;;;;;16.33;13.33;;;;;;;;5073873;28;47555;-64
2022/06/03 01:15:21;;;;;;;;;17.33;13.67;;;;;;;;5062776;28;45483;-63
2022/06/03 01:17:47;;;;;;;;;11.33;7.00;;;;;;;;5064759;28;45332;-64
2022/06/03 01:20:39;;;;;;;;;14.00;12.33;;;;;;;;5061430;28;45567;-64
2022/06/03 01:23:04;;;;;;;;;14.33;14.00;;;;;;;;5057116;28;46464;-64
2022/06/03 01:25:42;;;;;;;;;20.00;19.00;;;;;;;;5056821;28;45482;-64
2022/06/03 01:28:08;;;;;;;;;16.33;14.67;;;;;;;;5056395;28;45301;-64
2022/06/03 01:30:36;;;;;;;;;12.67;12.00;;;;;;;;5057208;28;45339;-64
2022/06/03 01:33:16;;;;;;;;;17.00;13.00;;;;;;;;5056982;28;46627;-64
2022/06/03 01:35:41;;;;;;;;;20.67;15.00;;;;;;;;5056928;28;45383;-64
2022/06/03 01:38:21;;;;;;;;;17.00;14.00;;;;;;;;5056955;28;45503;-64
2022/06/03 01:40:52;;;;;;;;;17.00;14.33;;;;;;;;5057399;28;45428;-64
2022/06/03 01:43:30;;;;;;;;;10.67;10.00;;;;;;;;5057255;28;45515;-64
2022/06/03 01:46:10;;;;;;;;;15.67;13.67;;;;;;;;5057056;28;45423;-64
2022/06/03 01:48:42;;;;;;;;;16.67;13.67;;;;;;;;5057323;28;45323;-64
2022/06/03 01:51:16;;;;;;;;;14.00;14.00;;;;;;;;5057063;28;45416;-64
2022/06/03 01:53:47;;;;;;;;;18.67;17.33;;;;;;;;5056874;28;45273;-64
2022/06/03 01:56:24;;;;;;;;;17.33;14.00;;;;;;;;5056931;28;45309;-64
2022/06/03 01:58:59;;;;;;;;;16.33;14.00;;;;;;;;5057239;28;45361;-64
2022/06/03 02:01:27;;;;;;;;;14.00;13.33;;;;;;;;5056844;28;45247;-64
2022/06/03 02:03:55;;;;;;;;;19.00;14.00;;;;;;;;5056915;28;45418;-64
2022/06/03 02:06:39;;;;;;;;;13.00;12.00;;;;;;;;5057102;28;45353;-64
2022/06/03 02:09:23;;;;;;;;;11.67;11.67;;;;;;;;5057074;28;45249;-64
2022/06/03 02:11:51;;;;;;;;;14.00;14.00;;;;;;;;5059144;28;45234;-64
2022/06/03 02:14:22;;;;;;;;;18.33;16.67;;;;;;;;5060044;28;46494;-64
2022/06/03 02:16:50;;;;;;;;;18.00;15.33;;;;;;;;5059867;28;45362;-64
2022/06/03 02:19:33;;;;;;;;;14.33;14.00;;;;;;;;5060673;28;45274;-64
2022/06/03 02:21:58;;;;;;;;;12.67;11.67;;;;;;;;5060650;28;45416;-64
2022/06/03 02:24:26;;;;;;;;;17.67;14.00;;;;;;;;5059972;28;47583;-64
2022/06/03 02:26:54;;;;;;;;;19.00;14.00;;;;;;;;5060136;28;45369;-64
2022/06/03 02:32:39;;;;;;;;;17.00;14.67;;;;;;;;5060335;28;45228;-64
2022/06/03 02:35:24;;;;;;;;;17.00;17.00;;;;;;;;5060041;28;47368;-64
2022/06/03 02:38:03;;;;;;;;;17.00;14.33;;;;;;;;5059543;28;45492;-64
2022/06/03 02:40:31;;;;;;;;;19.00;15.33;;;;;;;;5059970;28;45234;-64
2022/06/03 02:43:18;;;;;;;;;16.67;15.67;;;;;;;;5060157;28;45222;-64
2022/06/03 02:46:02;;;;;;;;;14.33;14.33;;;;;;;;5059515;28;46616;-64
2022/06/03 02:48:46;;;;;;;;;18.33;17.67;;;;;;;;5059822;28;45290;-64
2022/06/03 02:51:31;;;;;;;;;16.33;16.00;;;;;;;;5059821;28;45332;-64
2022/06/03 02:54:07;;;;;;;;;18.67;15.67;;;;;;;;5060073;28;45340;-64
2022/06/03 02:56:56;;;;;;;;;16.33;16.33;;;;;;;;5059555;28;47439;-64
2022/06/03 02:59:21;;;;;;;;;14.33;14.33;;;;;;;;5037349;28;45384;-64
2022/06/03 03:02:05;;;;;;;;;15.67;13.00;;;;;;;;5037132;28;45383;-64
2022/06/03 03:04:30;;;;;;;;;17.33;15.00;;;;;;;;5037633;28;45392;-64
2022/06/03 03:07:14;;;;;;;;;17.33;13.33;;;;;;;;5036704;28;45594;-64
2022/06/03 03:09:57;;;;;;;;;16.33;16.33;;;;;;;;5037187;28;45385;-64
2022/06/03 03:12:22;;;;;;;;;16.33;13.00;;;;;;;;5008862;28;45485;-64
2022/06/03 03:14:57;;;;;;;;;15.33;10.00;;;;;;;;5017504;28;45420;-64
2022/06/03 03:17:28;;;;;;;;;16.33;15.33;;;;;;;;5026916;28;46403;-64
2022/06/03 03:20:20;;;;;;;;;12.33;11.00;;;;;;;;5023143;28;45521;-65
2022/06/03 03:23:05;;;;;;;;;15.67;15.67;;;;;;;;5030443;28;45344;-64
2022/06/03 03:25:46;;;;;;;;;17.67;15.33;;;;;;;;5036663;28;45357;-64
2022/06/03 03:28:27;;;;;;;;;16.33;16.33;;;;;;;;5036629;28;45376;-64
2022/06/03 03:31:07;;;;;;;;;13.67;12.67;;;;;;;;5028985;28;45556;-65
2022/06/03 03:33:32;;;;;;;;;16.00;15.33;;;;;;;;5036763;28;45369;-64
2022/06/03 03:36:13;;;;;;;;;17.67;16.67;;;;;;;;5037676;28;45537;-64
2022/06/03 03:38:41;;;;;;;;;18.33;15.33;;;;;;;;5055853;28;46523;-64
2022/06/03 03:41:09;;;;;;;;;18.33;14.67;;;;;;;;5058683;28;45747;-64
2022/06/03 03:43:52;;;;;;;;;19.33;16.00;;;;;;;;5059221;28;45290;-64
2022/06/03 03:46:30;;;;;;;;;16.67;16.67;;;;;;;;5058952;28;45263;-64
2022/06/03 03:49:24;;;;;;;;;17.33;17.00;;;;;;;;5058732;28;46248;-64
2022/06/03 03:51:56;;;;;;;;;18.00;16.33;;;;;;;;5058603;28;45231;-64
2022/06/03 03:54:35;;;;;;;;;20.67;18.33;;;;;;;;5058864;28;45214;-65
2022/06/03 03:57:13;;;;;;;;;21.67;18.67;;;;;;;;5038791;28;45235;-65
2022/06/03 03:59:56;;;;;;;;;16.00;14.67;;;;;;;;5038380;28;45431;-65
2022/06/03 04:02:27;;;;;;;;;15.33;15.00;;;;;;;;5056400;28;45460;-65
2022/06/03 04:05:15;;;;;;;;;18.67;15.67;;;;;;;;5058157;28;45420;-65
2022/06/03 04:08:00;;;;;;;;;19.33;17.00;;;;;;;;5057311;28;45301;-65
2022/06/03 04:10:43;;;;;;;;;18.00;17.00;;;;;;;;5058566;28;45266;-65
2022/06/03 04:13:27;;;;;;;;;19.67;16.33;;;;;;;;5058658;28;45246;-64
2022/06/03 04:16:11;;;;;;;;;20.67;15.33;;;;;;;;5058671;28;45273;-64
2022/06/03 04:18:42;;;;;;;;;18.67;18.67;;;;;;;;5058259;28;45197;-65
2022/06/03 04:21:23;;;;;;;;;20.67;16.33;;;;;;;;5058161;28;46239;-65
2022/06/03 04:23:54;;;;;;;;;20.67;17.33;;;;;;;;5058220;28;45321;-64
2022/06/03 04:26:37;;;;;;;;;25.33;18.67;;;;;;;;5058220;28;45521;-65
2022/06/03 04:29:37;;;;;;;;;20.67;18.00;;;;;;;;5058572;28;45301;-64
2022/06/03 04:32:11;;;;;;;;;18.33;15.67;;;;;;;;5058148;28;46118;-64
2022/06/03 04:34:49;;;;;;;;;20.33;18.67;;;;;;;;5057812;28;45475;-64
2022/06/03 04:37:27;;;;;;;;;16.33;16.33;;;;;;;;5058247;28;45329;-64
2022/06/03 04:40:14;;;;;;;;;17.33;13.67;;;;;;;;5057918;28;45312;-65
2022/06/03 04:42:54;;;;;;;;;19.00;19.00;;;;;;;;5057801;28;45328;-65
2022/06/03 04:45:25;;;;;;;;;20.67;17.33;;;;;;;;5057865;28;45260;-64
2022/06/03 04:47:50;;;;;;;;;21.00;21.00;;;;;;;;5058153;28;45266;-64
2022/06/03 04:50:28;;;;;;;;;22.00;22.00;;;;;;;;5057790;28;45435;-64
2022/06/03 04:53:11;;;;;;;;;27.33;22.00;;;;;;;;5057819;28;46503;-65
2022/06/03 04:55:39;;;;;;;;;20.33;18.00;;;;;;;;5057442;28;45349;-64
2022/06/03 04:58:07;;;;;;;;;20.33;16.67;;;;;;;;5058099;28;45282;-64
2022/06/03 05:00:50;;;;;;;;;21.00;19.67;;;;;;;;5057252;28;45340;-64
2022/06/03 05:03:42;;;;;;;;;27.67;24.67;;;;;;;;5057110;28;46187;-65
2022/06/03 05:06:26;;;;;;;;;20.33;18.67;;;;;;;;5057614;28;45286;-64
2022/06/03 05:09:00;;;;;;;;;18.67;18.33;;;;;;;;5057768;28;45332;-64
2022/06/03 05:11:40;;;;;;;;;19.00;16.33;;;;;;;;5057706;28;45314;-64
2022/06/03 05:14:05;;;;;;;;;20.67;20.33;;;;;;;;5056972;28;46231;-64
2022/06/03 05:16:49;;;;;;;;;30.33;23.00;;;;;;;;5057302;28;45267;-65
2022/06/03 05:19:18;;;;;;;;;22.33;20.33;;;;;;;;5057556;28;45418;-65
2022/06/03 05:21:52;;;;;;;;;15.00;15.00;;;;;;;;5057622;28;45516;-65
2022/06/03 05:24:36;;;;;;;;;20.33;17.67;;;;;;;;5057285;28;46529;-64
2022/06/03 05:27:08;;;;;;;;;22.33;18.33;;;;;;;;5057266;28;45194;-65
2022/06/03 05:29:51;;;;;;;;;18.33;16.00;;;;;;;;5057380;28;45361;-65
2022/06/03 05:32:20;;;;;;;;;21.67;15.67;;;;;;;;5056169;28;45350;-65
2022/06/03 05:34:57;;;;;;;;;18.33;15.00;;;;;;;;5057113;28;46264;-65
2022/06/03 05:37:25;;;;;;;;;21.67;21.67;;;;;;;;5057087;28;45374;-65
2022/06/03 05:40:00;;;;;;;;;16.67;14.67;;;;;;;;5045489;28;45440;-65
2022/06/03 05:42:35;;;;;;;;;23.00;19.67;;;;;;;;5056508;28;45492;-65
2022/06/03 05:45:18;;;;;;;;;17.00;15.00;;;;;;;;5056760;28;46556;-65
2022/06/03 05:47:49;;;;;;;;;25.67;18.33;;;;;;;;5060253;28;45392;-65
2022/06/03 05:50:22;;;;;;;;;26.00;20.33;;;;;;;;5060486;28;45222;-65
2022/06/03 05:53:23;;;;;;;;;19.67;18.33;;;;;;;;5060863;28;45155;-65
2022/06/03 05:55:51;;;;;;;;;18.33;17.33;;;;;;;;4998195;28;46400;-64
2022/06/03 05:58:16;;;;;;;;;18.00;17.00;;;;;;;;5031754;28;45491;-65
2022/06/03 06:00:44;;;;;;;;;15.33;15.33;;;;;;;;5038029;28;45484;-65
2022/06/03 06:03:18;;;;;;;;;19.33;18.00;;;;;;;;5038345;28;45465;-65
2022/06/03 06:05:46;;;;;;;;;16.67;14.67;;;;;;;;5037744;28;46136;-65
2022/06/03 06:08:18;;;;;;;;;14.67;13.67;;;;;;;;5036343;28;45393;-65
2022/06/03 06:10:56;;;;;;;;;17.00;11.67;;;;;;;;5037880;28;45311;-65
2022/06/03 06:13:21;;;;;;;;;19.67;15.00;;;;;;;;5038165;28;45405;-65
2022/06/03 06:16:07;;;;;;;;;17.33;13.33;;;;;;;;5037934;28;45381;-65
2022/06/03 06:18:48;;;;;;;;;16.67;16.67;;;;;;;;5038100;28;45460;-65
2022/06/03 06:21:13;;;;;;;;;18.33;16.33;;;;;;;;5037805;28;45354;-65
2022/06/03 06:23:41;;;;;;;;;13.33;13.33;;;;;;;;5037639;28;45479;-65
2022/06/03 06:26:07;;;;;;;;;18.00;15.67;;;;;;;;5037807;28;45430;-65
2022/06/03 06:28:35;;;;;;;;;17.67;12.67;;;;;;;;5038097;28;45536;-65
2022/06/03 06:31:03;;;;;;;;;15.67;12.00;;;;;;;;5060017;28;45385;-65
2022/06/03 06:33:37;;;;;;;;;12.33;12.33;;;;;;;;5060319;28;45314;-65
2022/06/03 06:36:08;;;;;;;;;21.33;14.33;;;;;;;;5060118;28;46321;-64
2022/06/03 06:38:37;;;;;;;;;16.33;13.33;;;;;;;;5059644;28;45499;-65
2022/06/03 06:41:05;;;;;;;;;11.00;9.67;;;;;;;;5060079;28;45274;-64
2022/06/03 06:43:37;;;;;;;;;19.00;17.00;;;;;;;;5049782;28;45429;-64
2022/06/03 06:46:03;;;;;;;;;19.00;15.33;;;;;;;;5076648;28;46104;-64
2022/06/03 06:48:46;;;;;;;;;15.00;12.67;;;;;;;;5077984;28;45498;-64
2022/06/03 06:51:23;;;;;;;;;16.00;13.67;;;;;;;;5060931;28;45469;-64
2022/06/03 06:53:50;;;;;;;;;15.33;13.00;;;;;;;;5052798;28;45386;-64
2022/06/03 06:56:16;;;;;;;;;12.00;11.33;;;;;;;;5077731;28;45261;-64
2022/06/03 06:58:45;;;;;;;;;17.33;13.00;;;;;;;;5079472;28;45398;-64
2022/06/03 07:01:13;;;;;;;;;16.00;14.33;;;;;;;;5068208;28;45492;-64
2022/06/03 07:03:50;;;;;;;;;17.00;13.67;;;;;;;;5059882;28;45357;-64
2022/06/03 07:06:21;;;;;;;;;20.33;17.67;;;;;;;;5059411;28;46209;-64
2022/06/03 07:08:51;;;;;;;;;13.67;13.67;;;;;;;;5059519;28;45325;-64
2022/06/03 07:11:20;;;;;;;;;20.00;20.00;;;;;;;;5070990;28;45379;-64
2022/06/03 07:13:56;;;;;;;;;17.33;12.00;;;;;;;;5079835;28;45586;-64
2022/06/03 07:19:49;;;;;;;;;13.67;12.67;;;;;;;;5023778;28;45276;-64
2022/06/03 07:22:19;;;;;;;;;15.00;14.33;;;;;;;;5036925;28;45437;-64
2022/06/03 07:24:44;;;;;;;;;15.67;13.67;;;;;;;;5037154;28;45547;-64
2022/06/03 07:27:15;;;;;;;;;15.00;13.67;;;;;;;;5036279;28;45627;-64
2022/06/03 07:29:50;;;;;;;;;15.00;12.67;;;;;;;;5036392;28;45289;-64
2022/06/03 07:32:19;;;;;;;;;14.67;13.00;;;;;;;;5036570;28;45382;-64
2022/06/03 07:34:44;;;;;;;;;17.33;13.67;;;;;;;;5036473;28;45325;-64
2022/06/03 07:37:16;;;;;;;;;18.67;14.00;;;;;;;;5036335;28;46342;-64
2022/06/03 07:39:48;;;;;;;;;17.00;14.33;;;;;;;;5036529;28;45410;-64
2022/06/03 07:42:16;;;;;;;;;12.33;11.00;;;;;;;;5036242;28;45344;-64
2022/06/03 07:44:44;;;;;;;;;13.33;12.67;;;;;;;;5036635;28;45511;-64
2022/06/03 07:47:10;;;;;;;;;16.00;13.33;;;;;;;;5036090;28;46152;-64
2022/06/03 07:49:37;;;;;;;;;28.00;25.00;;;;;;;;5036218;28;45402;-64
2022/06/03 07:52:08;;;;;;;;;12.33;11.00;;;;;;;;5035473;28;45500;-64
2022/06/03 07:54:34;;;;;;;;;12.33;10.00;;;;;;;;5072926;28;45427;-64
2022/06/03 07:57:19;;;;;;;;;13.33;12.33;;;;;;;;5077759;28;45440;-64
2022/06/03 07:59:44;;;;;;;;;12.67;11.67;;;;;;;;5078777;28;45572;-64
2022/06/03 08:02:20;;;;;;;;;12.00;11.00;;;;;;;;5079066;28;45382;-64
2022/06/03 08:04:46;;;;;;;;;16.00;12.67;;;;;;;;5061187;28;45443;-65
2022/06/03 08:12:59;;;;;;;;;11.33;10.00;;;;;;;;5047583;28;45443;-64
2022/06/03 08:15:28;;;;;;;;;11.33;10.33;;;;;;;;5058469;28;45492;-65
2022/06/03 08:17:55;;;;;;;;;11.67;11.67;;;;;;;;5058102;28;46608;-65
2022/06/03 08:20:21;;;;;;;;;11.00;11.00;;;;;;;;5057673;28;45227;-65
2022/06/03 08:22:47;;;;;;;;;12.33;12.33;;;;;;;;5063286;28;45424;-65
2022/06/03 08:25:25;;;;;;;;;14.67;11.67;;;;;;;;5059038;28;45389;-65
2022/06/03 08:27:51;;;;;;;;;12.00;11.00;;;;;;;;5058064;28;46825;-65
2022/06/03 08:30:18;;;;;;;;;8.33;8.00;;;;;;;;5067400;28;45443;-65
2022/06/03 08:32:47;;;;;;;;;16.33;13.67;;;;;;;;5078725;28;45318;-65
2022/06/03 08:35:23;;;;;;;;;12.67;10.00;;;;;;;;5057596;28;45540;-65
2022/06/03 08:38:00;;;;;;;;;53.50;44.00;;;;;;;;5057619;28;46451;-65
2022/06/03 08:40:44;;;;;;;;;14.33;10.00;;;;;;;;5058024;28;45380;-65
2022/06/03 08:43:19;;;;;;;;;12.00;9.67;;;;;;;;5067012;28;45376;-65
2022/06/03 08:45:50;;;;;;;;;14.00;12.00;;;;;;;;5063002;28;45290;-64
2022/06/03 08:48:19;;;;;;;;;10.67;10.67;;;;;;;;5056727;28;46801;-64
2022/06/03 08:50:47;;;;;;;;;11.67;10.00;;;;;;;;5061321;28;45495;-65
2022/06/03 08:53:19;;;;;;;;;11.00;9.67;;;;;;;;5076537;28;45337;-65
2022/06/03 08:55:44;;;;;;;;;13.00;10.00;;;;;;;;5063242;28;45540;-64
2022/06/03 08:58:15;;;;;;;;;11.00;9.67;;;;;;;;5070568;28;46153;-65
2022/06/03 09:00:48;;;;;;;;;10.00;9.00;;;;;;;;5076833;27;45538;-64
2022/06/03 09:03:16;;;;;;;;;11.00;9.00;;;;;;;;5057222;28;45350;-64
2022/06/03 09:05:47;;;;;;;;;10.33;9.33;;;;;;;;5054428;28;45351;-64
2022/06/03 09:08:32;;;;;;;;;8.00;7.33;;;;;;;;5054948;28;46884;-64
2022/06/03 09:11:01;;;;;;;;;10.00;10.00;;;;;;;;5055633;28;45337;-64
2022/06/03 09:13:47;;;;;;;;;11.33;11.00;;;;;;;;5068143;28;45288;-64
2022/06/03 09:16:16;;;;;;;;;14.00;14.00;;;;;;;;5060777;28;45563;-64
2022/06/03 09:18:44;;;;;;;;;10.00;9.00;;;;;;;;5054710;28;46162;-64
2022/06/03 09:21:12;;;;;;;;;10.33;8.67;;;;;;;;5056429;28;45456;-64
2022/06/03 09:23:42;;;;;;;;;10.00;9.67;;;;;;;;5056769;28;45387;-64
2022/06/03 09:26:12;;;;;;;;;10.67;10.00;;;;;;;;5072899;28;45161;-64
2022/06/03 09:28:37;;;;;;;;;10.33;9.33;;;;;;;;5076663;28;45705;-64
2022/06/03 09:31:07;;;;;;;;;8.00;7.33;;;;;;;;5077025;28;45653;-64
2022/06/03 09:33:36;;;;;;;;;11.33;8.33;;;;;;;;5077799;28;45417;-64
2022/06/03 09:36:05;;;;;;;;;9.00;8.33;;;;;;;;5077184;28;45466;-64
2022/06/03 09:38:34;;;;;;;;;8.67;7.00;;;;;;;;5054704;28;46958;-64
2022/06/03 09:40:59;;;;;;;;;8.67;8.33;;;;;;;;5056979;28;45392;-64
2022/06/03 09:43:28;;;;;;;;;10.33;8.00;;;;;;;;5073707;28;45180;-64
2022/06/03 09:45:56;;;;;;;;;10.67;9.00;;;;;;;;5077648;28;45276;-64
2022/06/03 09:48:24;;;;;;;;;11.67;9.67;;;;;;;;5059245;28;45353;-64
2022/06/03 09:50:51;;;;;;;;;9.33;7.67;;;;;;;;5056227;28;45419;-64
2022/06/03 09:53:18;;;;;;;;;6.33;6.33;;;;;;;;5057136;28;45214;-65
2022/06/03 09:55:48;;;;;;;;;10.00;8.33;;;;;;;;5056763;28;45325;-65
2022/06/03 09:58:16;;;;;;;;;10.00;10.00;;;;;;;;5071785;28;47474;-65
2022/06/03 10:00:45;;;;;;;;;7.00;7.00;;;;;;;;5057599;28;45353;-65
2022/06/03 10:03:10;;;;;;;;;6.50;6.50;;;;;;;;5075729;28;45321;-65
2022/06/03 10:05:36;;;;;;;;;10.50;7.50;;;;;;;;5076843;28;45356;-66
2022/06/03 10:08:06;;;;;;;;;11.75;9.50;;;;;;;;5076795;28;45800;-65
2022/06/03 10:13:16;;;;;;;;;7.50;7.50;;;;;;;;5056919;28;45298;-65
2022/06/03 10:16:00;;;;;;;;;8.00;6.25;;;;;;;;5056824;28;45432;-65
2022/06/03 10:18:25;;;;;;;;;7.50;7.50;;;;;;;;5036209;28;47106;-65
2022/06/03 10:20:56;;;;;;;;;7.50;7.50;;;;;;;;5036156;28;45266;-66
2022/06/03 10:23:22;;;;;;;;;7.75;7.75;;;;;;;;5036820;28;45341;-66
2022/06/03 10:25:51;;;;;;;;;9.50;7.25;;;;;;;;5036522;28;45575;-65
2022/06/03 10:28:17;;;;;;;;;10.50;9.00;;;;;;;;5063222;28;45414;-66
2022/06/03 10:30:44;;;;;;;;;9.75;8.25;;;;;;;;5056243;28;45707;-65
2022/06/03 10:33:20;;;;;;;;;7.75;7.00;;;;;;;;5078021;28;45323;-65
2022/06/03 10:35:46;;;;;;;;;7.00;6.00;;;;;;;;5062139;28;45626;-66
2022/06/03 10:38:15;;;;;;;;;7.50;7.25;;;;;;;;5080104;28;46130;-65
2022/06/03 10:40:43;;;;;;;;;11.00;9.00;;;;;;;;5078331;28;46032;-66
2022/06/03 10:43:08;;;;;;;;;9.00;7.00;;;;;;;;5059732;28;45454;-65
2022/06/03 10:45:35;;;;;;;;;8.50;6.00;;;;;;;;5059923;28;45511;-66
2022/06/03 10:48:00;;;;;;;;;7.75;7.75;;;;;;;;5059737;28;45424;-65
2022/06/03 10:50:28;;;;;;;;;9.00;7.75;;;;;;;;5069603;28;45452;-65
2022/06/03 11:01:41;;;;;;;;;6.25;5.00;;;;;;;;5014687;28;45319;-65
2022/06/03 11:04:07;;;;;;;;;5.25;5.25;;;;;;;;4998736;28;45394;-64
2022/06/03 11:06:35;;;;;;;;;8.25;8.00;;;;;;;;4997266;28;45581;-65
2022/06/03 11:09:01;;;;;;;;;5.00;5.00;;;;;;;;5012312;28;46279;-65
2022/06/03 11:11:30;;;;;;;;;5.25;5.25;;;;;;;;5016811;28;45485;-65
2022/06/03 11:13:56;;;;;;;;;7.25;5.50;;;;;;;;5016893;28;45283;-65
2022/06/03 11:16:22;;;;;;;;;8.50;7.75;;;;;;;;5017099;28;45489;-64
2022/06/03 11:18:47;;;;;;;;;6.75;6.75;;;;;;;;5016955;28;46397;-64
2022/06/03 11:21:26;;;;;;;;;9.00;9.00;;;;;;;;5016485;28;45816;-64
2022/06/03 11:23:52;;;;;;;;;10.00;10.00;;;;;;;;5017396;28;45470;-64
2022/06/03 11:26:18;;;;;;;;;8.00;8.00;;;;;;;;5016931;28;45212;-64
2022/06/03 11:28:52;;;;;;;;;7.67;7.67;;;;;;;;5016685;28;46081;-64
2022/06/03 11:31:20;;;;;;;;;7.33;7.33;;;;;;;;5001396;28;45319;-65
2022/06/03 11:33:48;;;;;;;;;9.00;9.00;;;;;;;;5058800;28;45284;-65
2022/06/03 11:36:13;;;;;;;;;7.33;7.33;;;;;;;;5058394;28;45336;-65
2022/06/03 11:38:49;;;;;;;;;7.67;7.67;;;;;;;;5059045;28;46286;-65
2022/06/03 11:41:18;;;;;;;;;7.00;7.00;;;;;;;;5058867;28;45364;-65
2022/06/03 11:43:47;;;;;;;;;6.67;6.67;;;;;;;;5058765;28;45452;-65
2022/06/03 11:46:34;;;;;;;;;10.00;9.33;;;;;;;;5059048;28;45668;-65
2022/06/03 11:49:00;;;;;;;;;9.00;9.00;;;;;;;;5059063;28;47655;-65
2022/06/03 11:51:25;;;;;;;;;8.33;7.00;;;;;;;;5061653;28;45417;-65
2022/06/03 11:53:52;;;;;;;;;8.00;8.00;;;;;;;;5064572;28;45360;-65
2022/06/03 11:56:22;;;;;;;;;8.00;8.00;;;;;;;;5076502;28;45277;-64
2022/06/03 11:58:48;;;;;;;;;7.67;7.33;;;;;;;;5058376;28;46422;-64
2022/06/03 12:01:19;;;;;;;;;8.33;8.33;;;;;;;;5057944;28;45728;-64
2022/06/03 12:03:51;;;;;;;;;8.33;8.33;;;;;;;;5058806;28;45278;-65
2022/06/03 12:06:32;;;;;;;;;7.33;7.33;;;;;;;;5057771;28;45471;-65
2022/06/03 12:09:17;;;;;;;;;7.67;6.00;;;;;;;;5057288;28;47611;-65
2022/06/03 12:14:45;;;;;;;;;10.00;8.33;;;;;;;;5058097;28;45226;-64
2022/06/03 12:17:10;;;;;;;;;10.00;6.00;;;;;;;;5058262;28;46511;-65
2022/06/03 12:19:38;;;;;;;;;7.00;7.00;;;;;;;;5058127;28;46175;-64
2022/06/03 12:22:27;;;;;;;;;8.00;7.67;;;;;;;;5058370;28;45321;-64
2022/06/03 12:24:52;;;;;;;;;8.00;7.00;;;;;;;;5059254;28;45575;-64
2022/06/03 12:27:20;;;;;;;;;6.67;6.67;;;;;;;;5058812;28;45371;-64
2022/06/03 12:29:51;;;;;;;;;8.00;7.67;;;;;;;;5058127;28;45683;-64
2022/06/03 12:32:22;;;;;;;;;6.33;6.33;;;;;;;;5057478;28;45289;-65
2022/06/03 12:34:47;;;;;;;;;6.67;6.33;;;;;;;;5057545;28;45238;-65
2022/06/03 12:37:27;;;;;;;;;8.00;6.00;;;;;;;;5058197;28;45331;-65
2022/06/03 12:39:58;;;;;;;;;8.67;7.00;;;;;;;;5058269;28;47365;-64
2022/06/03 12:42:26;;;;;;;;;7.00;7.00;;;;;;;;5058181;28;45467;-64
2022/06/03 12:45:14;;;;;;;;;7.00;7.00;;;;;;;;5057533;28;45511;-64
2022/06/03 12:47:49;;;;;;;;;9.00;7.00;;;;;;;;5057564;28;45454;-65
2022/06/03 12:50:20;;;;;;;;;8.00;7.00;;;;;;;;5057790;28;46255;-65
2022/06/03 12:52:46;;;;;;;;;9.00;8.00;;;;;;;;5057807;28;45385;-65
2022/06/03 12:55:14;;;;;;;;;5.33;5.33;;;;;;;;5057747;28;45410;-64
2022/06/03 12:58:01;;;;;;;;;6.33;6.33;;;;;;;;5057991;28;45210;-64
2022/06/03 13:00:27;;;;;;;;;10.00;8.00;;;;;;;;5057193;28;46540;-64
2022/06/03 13:02:59;;;;;;;;;7.00;5.67;;;;;;;;5057815;28;45326;-64
2022/06/03 13:05:25;;;;;;;;;9.00;9.00;;;;;;;;5057155;28;45349;-65
2022/06/03 13:08:06;;;;;;;;;7.33;7.33;;;;;;;;5057749;28;45498;-64
2022/06/03 13:10:51;;;;;;;;;8.00;7.00;;;;;;;;5056831;28;47355;-65
2022/06/03 13:13:24;;;;;;;;;8.00;6.33;;;;;;;;5057479;28;45338;-65
2022/06/03 13:15:50;;;;;;;;;10.67;8.00;;;;;;;;5039680;28;45329;-64
2022/06/03 13:18:32;;;;;;;;;6.00;6.00;;;;;;;;5057637;28;45380;-64
2022/06/03 13:20:58;;;;;;;;;15.00;13.00;;;;;;;;5056658;28;46497;-64
2022/06/03 13:23:29;;;;;;;;;7.67;6.67;;;;;;;;5056950;28;45526;-64
2022/06/03 13:25:55;;;;;;;;;9.33;6.67;;;;;;;;5057303;28;45241;-64
2022/06/03 13:28:22;;;;;;;;;6.67;5.67;;;;;;;;5038964;28;46703;-65
2022/06/03 13:31:17;;;;;;;;;9.00;7.00;;;;;;;;5056529;28;45556;-65
2022/06/03 13:34:00;;;;;;;;;6.33;6.33;;;;;;;;5034899;28;45342;-65
2022/06/03 13:36:33;;;;;;;;;8.00;7.00;;;;;;;;5033505;28;45327;-65
2022/06/03 13:38:58;;;;;;;;;8.00;8.00;;;;;;;;5034514;28;45450;-65
2022/06/03 13:44:17;;;;;;;;;7.00;7.00;;;;;;;;5034922;28;45379;-64
2022/06/03 13:46:46;;;;;;;;;8.67;8.67;;;;;;;;5035074;28;45349;-64
2022/06/03 13:49:21;;;;;;;;;6.33;6.33;;;;;;;;5035050;28;45490;-65
2022/06/03 13:51:46;;;;;;;;;8.67;8.67;;;;;;;;5034539;28;45624;-64
2022/06/03 13:54:16;;;;;;;;;6.00;6.00;;;;;;;;5035076;28;45521;-64
2022/06/03 13:56:51;;;;;;;;;7.00;7.00;;;;;;;;5034661;28;45381;-64
2022/06/03 13:59:17;;;;;;;;;7.33;6.00;;;;;;;;5034943;28;45400;-64
2022/06/03 14:01:44;;;;;;;;;7.00;7.00;;;;;;;;5034774;28;46084;-64
2022/06/03 14:04:17;;;;;;;;;9.00;7.00;;;;;;;;5034548;28;45429;-65
2022/06/03 14:06:50;;;;;;;;;7.33;7.33;;;;;;;;5035005;28;45301;-65
2022/06/03 14:09:21;;;;;;;;;8.67;7.00;;;;;;;;5037108;28;45554;-65
2022/06/03 14:11:48;;;;;;;;;10.00;7.67;;;;;;;;5053744;28;45607;-65
2022/06/03 14:14:24;;;;;;;;;5.00;5.00;;;;;;;;5059542;28;45422;-65
2022/06/03 14:16:57;;;;;;;;;7.67;6.00;;;;;;;;5060381;28;45399;-65
2022/06/03 14:19:23;;;;;;;;;7.00;7.00;;;;;;;;5060245;28;45500;-65
2022/06/03 14:21:50;;;;;;;;;5.33;5.33;;;;;;;;5059735;28;45660;-65
2022/06/03 14:24:21;;;;;;;;;9.33;8.00;;;;;;;;5060301;28;45456;-65
2022/06/03 14:26:50;;;;;;;;;5.33;5.33;;;;;;;;5060487;28;45373;-65
2022/06/03 14:29:31;;;;;;;;;7.00;7.00;;;;;;;;5060547;28;45439;-65
2022/06/03 14:32:03;;;;;;;;;8.67;8.67;;;;;;;;5059032;28;45273;-64
2022/06/03 14:34:31;;;;;;;;;8.00;7.00;;;;;;;;5059356;28;45448;-65
2022/06/03 14:36:58;;;;;;;;;9.00;7.67;;;;;;;;5060064;28;45238;-64
2022/06/03 14:39:25;;;;;;;;;7.00;7.00;;;;;;;;5060279;28;45323;-65
2022/06/03 14:41:53;;;;;;;;;7.00;7.00;;;;;;;;5059833;28;46489;-64
2022/06/03 14:44:21;;;;;;;;;8.00;7.33;;;;;;;;5059789;28;45210;-64
2022/06/03 14:46:53;;;;;;;;;6.00;6.00;;;;;;;;5059815;28;45224;-65
2022/06/03 14:49:23;;;;;;;;;8.00;8.00;;;;;;;;5059045;28;45552;-65
2022/06/03 14:51:52;;;;;;;;;6.67;6.67;;;;;;;;5059577;28;46335;-64
2022/06/03 14:54:22;;;;;;;;;7.00;7.00;;;;;;;;5059576;28;45396;-64
2022/06/03 14:56:49;;;;;;;;;7.67;7.67;;;;;;;;5059539;28;45282;-64
2022/06/03 14:59:27;;;;;;;;;10.67;9.00;;;;;;;;5059991;28;45424;-64
2022/06/03 15:01:58;;;;;;;;;11.67;9.00;;;;;;;;5058065;28;46430;-65
2022/06/03 15:04:31;;;;;;;;;6.00;6.00;;;;;;;;5058685;28;45446;-64
2022/06/03 15:07:07;;;;;;;;;10.00;8.67;;;;;;;;5059679;28;45547;-64
2022/06/03 15:09:33;;;;;;;;;7.33;7.33;;;;;;;;5059654;28;45495;-64
2022/06/03 15:12:00;;;;;;;;;8.00;8.00;;;;;;;;5058445;28;45408;-64
2022/06/03 15:14:26;;;;;;;;;8.33;7.00;;;;;;;;5058629;28;45489;-64
2022/06/03 15:16:54;;;;;;;;;8.33;8.33;;;;;;;;5058669;28;45400;-64
2022/06/03 15:19:34;;;;;;;;;8.67;7.00;;;;;;;;5058410;28;45455;-64
2022/06/03 15:22:00;;;;;;;;;9.67;8.33;;;;;;;;5058818;28;46590;-64
2022/06/03 15:24:26;;;;;;;;;11.00;9.00;;;;;;;;5058835;28;45511;-65
2022/06/03 15:26:51;;;;;;;;;7.67;7.33;;;;;;;;5058604;28;45439;-64
2022/06/03 15:29:19;;;;;;;;;7.00;7.00;;;;;;;;5059792;28;45382;-64